Ellon, United Kingdom
Current Conditions -  °F | °C
As of 5:20 AM on Tuesday 21 Oct 2014 (Local Time) from EGPD Reporting Station
Light Rain Light Rain  
Wind Chill: 54°   Ceiling: 800
Heat Index: 54°   Visibility: 3mi
Dew Point: 52°   Wind: 21mph
Humidity: 94%   Direction: 190°S
Pressure: 28.97"   Gusts: NA
Location:  57.37°N, 2.07°W
Report Text: EGPD 210420Z 19018KT 5000 -RA FEW006 BKN008 12/11 Q0981 TEMPO SCT008
Loading
Personal Weather Stations






























Interactive Weather Map
Tropical Storm Tracking
New forecast layout! Learn more

10-Day Weather Forecast

Advertisements
Track Severe Weather on mobile